Deerfield Beach, FL

2:06 AM EDT on September 05, 2015 (GMT -0400)
Deerfield Beach | | Change Station
CLOSE
Current Station
Personal Weather Station
Location: Deerfield Beach, FL
Elevation: 30 ft
Nearby Weather Stations

Elev 30 ft 26.32 °N, 80.12 °W | Updated 8 minutes ago

Partly Cloudy
Partly Cloudy
78.9 °F
Feels Like 83 °F
N
0.0
Wind Variable Wind from WSW
Gusts 0.0 mph

Today
High -- | Low -- °F
--% Chance of Precip.
Yesterday
High -- | Low -- °F
Precip. -- in
7:01 AM 7:36 PM
Waning Gibbous, 52% visible
Pressure 29.95 in
Visibility 10.0 miles
Clouds Clear
Heat Index 83 °F
Dew Point 76 °F
Humidity 91%
Rainfall 1.69 in
Snow Depth Not available.
UV 0 out of 12
Pollen 3.60 out of 12
Air Quality Not available.
Flu Activity Not available.
METAR KPMP 050553Z AUTO 36003KT 10SM CLR 27/24 A2995 RMK AO2 SLP142 T02670239 10272 20261 58009
Pressure 29.95 in
Visibility 10.0 miles
Clouds Clear
Heat Index 83 °F
Dew Point 76 °F
Humidity 91%
Rainfall 1.69 in
Snow Depth Not available.
UV 0 out of 12
Pollen 3.60 out of 12
Air Quality Not available.
Flu Activity Not available.
METAR KPMP 050553Z AUTO 36003KT 10SM CLR 27/24 A2995 RMK AO2 SLP142 T02670239 10272 20261 58009

10-Day Weather Forecast

×

Almanac

Astronomy

Sep. 05, 2015 Rise Set
Actual Time
Civil Twilight
Nautical Twilight
Astronomical Twilight
Moon
Length of Visible Light
Length of Day
Tomorrow will be .
, % of the Moon is Illuminated

Today's Extremes

State Highs State Lows

Community

WunderPhotos

Upload Photos

1,852,431 photos uploaded!

WunderBlogs® & News

Nearby

Air Quality

  Air Quality AQ Index Pollutant
Not available.

Snow Depth

Station Depth Elevation

Earthquake Activity

City Distance Mag. Time & Date
Minimum magnitude displayed is 2.5.

Coastal Water Temperatures

Place Temperature

Stations

Nearby Weather Stations

Station Location Temp. Windchill Dew Point Humidity Wind Precip. Elev Updated Type